West Miami, Florida
Current Conditions -  °F | °C
As of 3:53 AM on Friday 31 Oct 2014 (Local Time) from KMIA Reporting Station
Clear Clear  
Wind Chill: 23°   Ceiling: Unl
Heat Index: 23°   Visibility: 10mi
Dew Point: 21°   Wind: 3mph
Humidity: 87%   Direction: 220°SW
Pressure: 29.84"   Gusts: NA
Location:  25.7365°N, 80.3112°W
Report Text: KMIA 310753Z 22003KT 10SM CLR 23/21 A2984 RMK AO2 SLP104 98504 T02280206
Loading
Personal Weather Stations






























Interactive Weather Map
Tropical Storm Tracking
New forecast layout! Learn more

10-Day Weather Forecast

Advertisements
Track Severe Weather on mobile